Time;durP1;ratioP1;P1;durP2;ratioP2;P2;SDS_P1;SDS_P2;PMS_P1;PMS_P2;Temp;Humidity;BMP_temperature;BMP_pressure;BME280_temperature;BME280_humidity;BME280_pressure;Samples;Min_cycle;Max_cycle;Signal;HPM_P1;HPM_P2
2022/07/13 00:00:54;;;;;;;2.00;1.60;;;18.30;86.80;;;;;;5054292;28;20202;-83
2022/07/13 00:03:25;;;;;;;1.50;1.33;;;18.40;87.80;;;;;;5054386;28;20256;-82
2022/07/13 00:05:54;;;;;;;1.88;1.70;;;18.30;87.00;;;;;;5054387;28;20221;-83
2022/07/13 00:08:22;;;;;;;1.98;1.88;;;18.30;86.80;;;;;;5054331;28;20206;-83
2022/07/13 00:10:52;;;;;;;1.10;1.10;;;18.30;86.90;;;;;;5054039;28;20201;-82
2022/07/13 00:13:21;;;;;;;1.60;1.50;;;18.30;86.90;;;;;;5054435;28;20221;-83
2022/07/13 00:15:49;;;;;;;1.63;1.52;;;18.30;86.80;;;;;;5054472;28;20271;-83
2022/07/13 00:18:18;;;;;;;1.02;1.02;;;18.30;86.40;;;;;;5054166;28;20239;-82
2022/07/13 00:20:47;;;;;;;2.22;1.52;;;18.30;86.20;;;;;;5053872;28;20217;-82
2022/07/13 00:23:15;;;;;;;3.25;1.75;;;18.40;86.20;;;;;;5053691;28;20225;-83
2022/07/13 00:25:43;;;;;;;1.45;1.35;;;18.40;86.10;;;;;;5053972;28;20206;-82
2022/07/13 00:28:13;;;;;;;1.20;1.20;;;18.30;86.00;;;;;;5054178;28;20267;-83
2022/07/13 00:30:42;;;;;;;1.45;1.33;;;18.30;86.00;;;;;;5054026;28;20205;-82
2022/07/13 00:33:10;;;;;;;1.48;1.38;;;18.30;86.20;;;;;;5053850;28;20218;-82
2022/07/13 00:35:38;;;;;;;1.40;1.30;;;18.30;86.00;;;;;;5053690;28;20289;-82
2022/07/13 00:38:07;;;;;;;1.40;1.30;;;18.30;86.50;;;;;;5053693;28;20210;-83
2022/07/13 00:40:35;;;;;;;1.65;1.55;;;18.30;86.40;;;;;;5053573;28;20225;-82
2022/07/13 00:43:05;;;;;;;1.58;1.48;;;18.20;86.70;;;;;;5053707;28;20229;-83
2022/07/13 00:45:35;;;;;;;1.52;1.27;;;18.20;86.40;;;;;;5053153;28;20201;-83
2022/07/13 00:48:04;;;;;;;1.40;1.30;;;18.20;86.60;;;;;;5053298;28;20205;-82
2022/07/13 00:50:33;;;;;;;1.50;1.40;;;18.20;86.70;;;;;;5053399;28;20275;-83
2022/07/13 00:53:02;;;;;;;1.42;1.30;;;18.20;86.80;;;;;;5053430;28;20296;-83
2022/07/13 00:55:30;;;;;;;1.15;1.15;;;18.20;86.80;;;;;;5054024;28;20275;-83
2022/07/13 00:58:00;;;;;;;1.85;1.40;;;18.20;86.80;;;;;;5053721;28;20194;-83
2022/07/13 01:00:28;;;;;;;1.33;1.10;;;18.20;87.00;;;;;;5053098;28;20217;-82
2022/07/13 01:02:58;;;;;;;1.40;1.30;;;18.20;87.30;;;;;;5052722;28;20229;-83
2022/07/13 01:05:26;;;;;;;3.42;1.35;;;18.10;87.40;;;;;;5053346;28;20210;-83
2022/07/13 01:07:55;;;;;;;1.52;1.30;;;18.10;87.40;;;;;;5053434;28;20206;-82
2022/07/13 01:10:27;;;;;;;1.30;1.30;;;18.10;87.60;;;;;;5052914;28;20206;-82
2022/07/13 01:12:55;;;;;;;1.10;1.10;;;18.10;87.80;;;;;;5053141;28;20221;-82
2022/07/13 01:15:25;;;;;;;1.42;1.30;;;18.00;88.00;;;;;;5053111;28;20217;-82
2022/07/13 01:17:54;;;;;;;1.60;1.50;;;18.00;88.00;;;;;;5053124;28;20213;-82
2022/07/13 01:20:25;;;;;;;1.25;1.20;;;18.00;88.00;;;;;;5053101;28;20205;-82
2022/07/13 01:22:54;;;;;;;1.88;1.50;;;18.00;88.30;;;;;;5053137;28;20356;-83
2022/07/13 01:25:24;;;;;;;1.35;1.25;;;18.00;88.20;;;;;;5053341;28;20212;-83
2022/07/13 01:27:53;;;;;;;1.27;1.20;;;18.00;88.20;;;;;;5053076;28;20210;-82
2022/07/13 01:30:21;;;;;;;0.95;0.90;;;18.00;88.20;;;;;;5052708;28;20217;-83
2022/07/13 01:32:51;;;;;;;1.73;1.60;;;18.00;88.20;;;;;;5052984;28;20229;-82
2022/07/13 01:35:22;;;;;;;1.88;1.38;;;18.00;88.30;;;;;;5053092;28;20206;-82
2022/07/13 01:37:51;;;;;;;1.27;1.08;;;18.00;88.40;;;;;;5052789;28;20233;-83
2022/07/13 01:40:19;;;;;;;0.95;0.95;;;17.90;88.60;;;;;;5052512;28;20217;-82
2022/07/13 01:42:50;;;;;;;1.20;1.20;;;17.90;88.60;;;;;;5052734;28;20287;-82
2022/07/13 01:45:22;;;;;;;1.42;1.15;;;18.00;88.80;;;;;;5052881;28;20212;-83
2022/07/13 01:47:52;;;;;;;1.50;1.40;;;17.90;88.80;;;;;;5052962;28;20205;-82
2022/07/13 01:50:22;;;;;;;1.38;1.27;;;17.90;88.90;;;;;;5052471;28;20267;-83
2022/07/13 01:52:51;;;;;;;1.10;1.10;;;17.90;89.00;;;;;;5052421;28;20194;-82
2022/07/13 01:55:20;;;;;;;1.40;1.30;;;17.90;89.10;;;;;;5052341;28;20269;-82
2022/07/13 01:57:50;;;;;;;1.52;1.42;;;17.90;89.30;;;;;;5052893;28;20205;-82
2022/07/13 02:00:20;;;;;;;1.02;1.00;;;17.90;89.60;;;;;;5054694;28;20209;-82
2022/07/13 02:02:49;;;;;;;1.42;1.33;;;17.80;89.80;;;;;;5056789;28;20312;-82
2022/07/13 02:05:19;;;;;;;1.20;1.20;;;17.80;90.10;;;;;;5056461;28;20255;-82
2022/07/13 02:07:47;;;;;;;1.38;1.27;;;17.70;90.30;;;;;;5056571;28;20228;-82
2022/07/13 02:10:15;;;;;;;1.23;1.13;;;17.70;90.50;;;;;;5056546;28;20202;-82
2022/07/13 02:12:43;;;;;;;1.45;1.35;;;17.60;90.60;;;;;;5056675;28;20226;-82
2022/07/13 02:15:13;;;;;;;1.63;1.52;;;17.50;90.70;;;;;;5056746;28;20217;-82
2022/07/13 02:17:42;;;;;;;1.52;1.42;;;17.50;90.80;;;;;;5056559;28;20210;-82
2022/07/13 02:20:10;;;;;;;1.65;1.55;;;17.40;90.90;;;;;;5056586;28;20229;-82
2022/07/13 02:22:43;;;;;;;1.00;1.00;;;17.40;91.00;;;;;;5056390;28;20225;-82
2022/07/13 02:25:12;;;;;;;1.95;1.30;;;17.40;91.10;;;;;;5056491;28;20209;-82
2022/07/13 02:27:41;;;;;;;2.13;1.45;;;17.40;91.10;;;;;;5056525;28;20209;-82
2022/07/13 02:30:10;;;;;;;1.48;1.38;;;17.40;91.20;;;;;;5056344;28;20296;-82
2022/07/13 02:32:40;;;;;;;1.10;1.05;;;17.40;91.20;;;;;;5056048;28;20201;-82
2022/07/13 02:35:09;;;;;;;1.50;1.35;;;17.40;91.30;;;;;;5056541;28;20316;-82
2022/07/13 02:37:38;;;;;;;0.93;0.93;;;17.30;91.40;;;;;;5055886;28;20232;-82
2022/07/13 02:40:08;;;;;;;1.20;1.20;;;17.30;91.50;;;;;;5055973;28;20293;-82
2022/07/13 02:42:36;;;;;;;1.73;1.63;;;17.30;91.60;;;;;;5055648;28;20210;-82
2022/07/13 02:45:06;;;;;;;1.20;1.15;;;17.20;91.80;;;;;;5056119;28;20235;-82
2022/07/13 02:47:34;;;;;;;1.05;1.05;;;17.20;92.00;;;;;;5056006;28;20205;-82
2022/07/13 02:50:04;;;;;;;2.08;1.40;;;17.20;92.10;;;;;;5055496;28;20265;-82
2022/07/13 02:52:33;;;;;;;1.58;1.25;;;17.20;92.30;;;;;;5055592;28;20234;-82
2022/07/13 02:55:01;;;;;;;1.52;1.42;;;17.10;92.50;;;;;;5055834;28;20233;-82
2022/07/13 02:57:29;;;;;;;1.20;1.15;;;17.10;92.50;;;;;;5055760;28;20288;-82
2022/07/13 02:59:58;;;;;;;1.45;1.33;;;17.10;92.80;;;;;;5055717;28;20221;-82
2022/07/13 03:02:26;;;;;;;1.27;1.20;;;17.10;93.00;;;;;;5055266;28;20205;-82
2022/07/13 03:04:55;;;;;;;2.08;1.88;;;17.00;93.10;;;;;;5055273;28;20249;-82
2022/07/13 03:07:24;;;;;;;1.60;1.50;;;17.00;93.30;;;;;;5055385;28;20214;-82
2022/07/13 03:09:53;;;;;;;1.40;1.30;;;17.00;93.40;;;;;;5055591;28;20289;-82
2022/07/13 03:12:25;;;;;;;0.90;0.90;;;17.00;93.50;;;;;;5055015;28;20220;-82
2022/07/13 03:14:53;;;;;;;1.48;1.40;;;17.00;93.80;;;;;;5055407;28;20260;-82
2022/07/13 03:17:21;;;;;;;1.63;1.52;;;17.00;93.80;;;;;;5055454;28;20244;-82
2022/07/13 03:19:49;;;;;;;1.55;1.45;;;16.90;93.90;;;;;;5055262;28;20206;-82
2022/07/13 03:22:18;;;;;;;1.15;1.15;;;17.00;94.20;;;;;;5055304;28;20236;-82
2022/07/13 03:24:47;;;;;;;1.50;1.40;;;16.90;94.40;;;;;;5054800;28;20260;-82
2022/07/13 03:27:16;;;;;;;1.30;1.05;;;16.90;94.50;;;;;;5055467;28;20247;-82
2022/07/13 03:29:44;;;;;;;1.00;1.00;;;16.90;94.60;;;;;;5055136;28;20241;-82
2022/07/13 03:32:12;;;;;;;1.15;1.15;;;16.90;94.80;;;;;;5054907;28;20271;-82
2022/07/13 03:34:41;;;;;;;1.00;1.00;;;16.90;95.00;;;;;;5055405;28;20217;-82
2022/07/13 03:37:09;;;;;;;1.63;1.52;;;16.90;95.20;;;;;;5055322;28;20202;-82
2022/07/13 03:39:39;;;;;;;1.10;1.10;;;17.00;95.40;;;;;;5054820;28;20205;-81
2022/07/13 03:42:08;;;;;;;1.27;1.25;;;16.90;95.50;;;;;;5054612;28;20206;-82
2022/07/13 03:44:37;;;;;;;1.50;1.40;;;17.00;96.00;;;;;;5054276;28;20222;-82
2022/07/13 03:47:05;;;;;;;1.58;1.48;;;17.00;95.80;;;;;;5054563;28;20269;-82
2022/07/13 03:49:33;;;;;;;1.33;1.27;;;16.90;95.90;;;;;;5054789;28;20198;-82
2022/07/13 03:52:01;;;;;;;1.48;1.38;;;17.00;96.10;;;;;;5054427;28;20225;-82
2022/07/13 03:54:30;;;;;;;1.55;1.45;;;17.00;96.20;;;;;;5054532;28;20261;-82
2022/07/13 03:56:58;;;;;;;1.55;1.45;;;17.00;96.50;;;;;;5054650;28;20228;-82
2022/07/13 03:59:28;;;;;;;1.67;1.50;;;17.00;96.30;;;;;;5054375;28;20205;-82
2022/07/13 04:01:57;;;;;;;1.77;1.48;;;17.10;96.40;;;;;;5054063;28;20293;-82
2022/07/13 04:04:27;;;;;;;1.60;1.50;;;17.10;96.40;;;;;;5054260;28;20230;-82
2022/07/13 04:06:55;;;;;;;1.08;1.00;;;17.20;96.60;;;;;;5054270;28;20209;-82
2022/07/13 04:09:24;;;;;;;1.27;1.20;;;17.20;96.60;;;;;;5053998;28;20226;-82
2022/07/13 04:11:52;;;;;;;1.30;1.20;;;17.20;96.60;;;;;;5054203;28;20214;-82
2022/07/13 04:14:20;;;;;;;3.17;1.40;;;17.20;96.70;;;;;;5054314;28;20283;-82
2022/07/13 04:16:50;;;;;;;1.73;1.50;;;17.30;96.70;;;;;;5053953;28;20214;-82
2022/07/13 04:19:18;;;;;;;1.20;1.10;;;17.30;96.80;;;;;;5053988;28;20212;-82
2022/07/13 04:21:47;;;;;;;1.70;1.60;;;17.30;96.80;;;;;;5054225;28;20206;-82
2022/07/13 04:24:21;;;;;;;1.27;1.25;;;17.30;97.00;;;;;;5053917;28;20236;-82
2022/07/13 04:26:50;;;;;;;2.13;1.73;;;17.40;96.90;;;;;;5054175;28;20210;-82
2022/07/13 04:29:18;;;;;;;2.03;1.45;;;17.40;96.80;;;;;;5054372;28;20202;-82
2022/07/13 04:31:46;;;;;;;1.63;1.20;;;17.50;96.80;;;;;;5053924;28;20206;-82
2022/07/13 04:34:16;;;;;;;1.25;1.17;;;17.60;96.80;;;;;;5053849;28;20298;-82
2022/07/13 04:36:45;;;;;;;3.28;1.40;;;17.60;96.90;;;;;;5053568;28;20258;-82
2022/07/13 04:39:14;;;;;;;1.90;1.70;;;17.70;96.90;;;;;;5053863;28;20198;-82
2022/07/13 04:41:42;;;;;;;1.17;1.17;;;17.80;96.90;;;;;;5053755;28;20210;-82
2022/07/13 04:44:11;;;;;;;1.90;1.75;;;17.90;96.90;;;;;;5053656;28;20225;-82
2022/07/13 04:46:39;;;;;;;1.23;1.15;;;18.00;97.00;;;;;;5053532;28;20198;-82
2022/07/13 04:49:08;;;;;;;1.42;1.33;;;18.00;97.00;;;;;;5053755;28;20217;-82
2022/07/13 04:51:38;;;;;;;1.45;1.27;;;18.10;97.10;;;;;;5053220;28;20293;-82
2022/07/13 04:54:06;;;;;;;1.80;1.50;;;18.20;97.20;;;;;;5053080;28;20247;-82
2022/07/13 04:56:34;;;;;;;2.58;1.50;;;18.20;97.20;;;;;;5053313;28;20297;-82
2022/07/13 04:59:03;;;;;;;1.45;1.35;;;18.20;97.40;;;;;;5053891;28;20209;-82
2022/07/13 05:01:31;;;;;;;1.42;1.33;;;18.30;97.50;;;;;;5052966;28;20240;-82
2022/07/13 05:04:01;;;;;;;1.70;1.60;;;18.20;97.60;;;;;;5052890;28;20222;-82
2022/07/13 05:06:30;;;;;;;1.33;1.23;;;18.20;98.20;;;;;;5053291;28;20208;-82
2022/07/13 05:09:00;;;;;;;3.10;1.67;;;18.20;98.10;;;;;;5053381;28;20206;-82
2022/07/13 05:11:29;;;;;;;1.40;1.30;;;18.30;98.10;;;;;;5052678;28;20237;-82
2022/07/13 05:13:57;;;;;;;1.45;1.35;;;18.30;98.10;;;;;;5052799;28;20252;-82
2022/07/13 05:16:25;;;;;;;1.33;1.30;;;18.50;98.20;;;;;;5052909;28;20229;-82
2022/07/13 05:18:54;;;;;;;1.35;1.27;;;18.60;98.10;;;;;;5053066;28;20263;-82
2022/07/13 05:21:22;;;;;;;1.60;1.50;;;18.70;98.00;;;;;;5052931;28;20280;-82
2022/07/13 05:23:50;;;;;;;1.50;1.40;;;18.80;98.00;;;;;;5052825;28;20222;-82
2022/07/13 05:26:20;;;;;;;1.40;1.30;;;18.80;98.00;;;;;;5053017;28;20213;-82
2022/07/13 05:28:48;;;;;;;1.65;1.55;;;18.90;98.10;;;;;;5053029;28;20205;-82
2022/07/13 05:31:17;;;;;;;1.42;1.33;;;19.00;98.10;;;;;;5052822;28;20236;-82
2022/07/13 05:33:45;;;;;;;1.65;1.55;;;19.00;98.00;;;;;;5052327;28;20232;-82
2022/07/13 05:36:13;;;;;;;1.30;1.20;;;19.00;98.00;;;;;;5052637;28;20206;-82
2022/07/13 05:38:42;;;;;;;1.85;1.73;;;19.00;98.10;;;;;;5052880;28;20198;-82
2022/07/13 05:41:10;;;;;;;1.50;1.25;;;19.00;98.20;;;;;;5052554;28;20248;-82
2022/07/13 05:43:40;;;;;;;1.10;1.10;;;19.10;98.10;;;;;;5052281;28;20285;-82
2022/07/13 05:46:09;;;;;;;1.30;1.25;;;19.10;97.80;;;;;;5052290;28;20302;-83
2022/07/13 05:48:38;;;;;;;5.07;1.60;;;19.10;97.80;;;;;;5052675;28;20208;-82
2022/07/13 05:51:06;;;;;;;1.55;1.23;;;19.20;97.90;;;;;;5052123;28;20229;-82
2022/07/13 05:53:54;;;;;;;1.70;1.60;;;19.20;97.80;;;;;;5052536;28;20312;-82
2022/07/13 05:56:23;;;;;;;1.75;1.20;;;19.20;97.90;;;;;;5052765;28;20229;-82
2022/07/13 05:58:53;;;;;;;1.17;1.15;;;19.20;97.90;;;;;;5052490;28;20209;-82
2022/07/13 06:01:21;;;;;;;1.10;1.10;;;19.10;98.10;;;;;;5051898;28;20205;-82
2022/07/13 06:03:49;;;;;;;1.58;1.38;;;19.10;98.30;;;;;;5052724;28;20293;-82
2022/07/13 06:06:18;;;;;;;1.85;1.75;;;19.00;98.50;;;;;;5051988;28;20229;-82
2022/07/13 06:08:46;;;;;;;3.20;1.52;;;19.00;98.70;;;;;;5052027;28;20223;-82
2022/07/13 06:11:14;;;;;;;2.88;1.67;;;19.00;98.90;;;;;;5052358;28;20342;-82
2022/07/13 06:13:42;;;;;;;1.63;1.50;;;19.00;99.10;;;;;;5052364;28;20217;-82
2022/07/13 06:16:12;;;;;;;1.67;1.58;;;19.00;99.20;;;;;;5052806;28;20207;-82
2022/07/13 06:18:41;;;;;;;1.65;1.55;;;19.10;99.20;;;;;;5052603;28;20232;-82
2022/07/13 06:21:09;;;;;;;2.88;1.90;;;19.30;99.10;;;;;;5052258;28;20212;-82
2022/07/13 06:23:38;;;;;;;1.92;1.67;;;19.40;99.00;;;;;;5052411;28;20226;-82
2022/07/13 06:26:06;;;;;;;1.45;1.35;;;19.50;99.00;;;;;;5052140;28;20244;-82
2022/07/13 06:28:34;;;;;;;1.58;1.42;;;19.70;98.80;;;;;;5052590;28;20244;-82
2022/07/13 06:31:03;;;;;;;1.58;1.45;;;19.80;98.80;;;;;;5052253;28;20201;-82
2022/07/13 06:33:33;;;;;;;1.52;1.42;;;20.10;98.50;;;;;;5052163;28;20226;-82
2022/07/13 06:36:01;;;;;;;1.33;1.30;;;20.30;98.20;;;;;;5052354;28;20233;-82
2022/07/13 06:38:29;;;;;;;2.30;1.77;;;20.50;97.90;;;;;;5051887;28;20237;-82
2022/07/13 06:40:58;;;;;;;1.45;1.35;;;20.70;97.60;;;;;;5052085;28;20205;-82
2022/07/13 06:43:26;;;;;;;1.77;1.67;;;20.80;97.20;;;;;;5052297;28;20225;-82
2022/07/13 06:45:54;;;;;;;1.60;1.50;;;20.90;97.00;;;;;;5053116;28;20254;-82
2022/07/13 06:48:23;;;;;;;2.33;2.13;;;21.10;96.80;;;;;;5055760;28;20212;-82
2022/07/13 06:50:53;;;;;;;1.55;1.45;;;21.20;96.80;;;;;;5055765;28;20202;-82
2022/07/13 06:53:21;;;;;;;1.40;1.30;;;21.40;96.50;;;;;;5055896;28;20279;-82
2022/07/13 06:55:49;;;;;;;1.33;1.30;;;21.50;96.20;;;;;;5055916;28;20194;-82
2022/07/13 06:58:18;;;;;;;1.33;1.20;;;21.60;96.00;;;;;;5055876;28;20201;-82
2022/07/13 07:00:46;;;;;;;1.95;1.52;;;21.70;95.80;;;;;;5055484;28;20225;-82
2022/07/13 07:03:14;;;;;;;1.90;1.80;;;21.90;95.70;;;;;;5055349;28;20256;-82
2022/07/13 07:05:43;;;;;;;1.45;1.35;;;22.00;95.50;;;;;;5055527;28;20217;-82
2022/07/13 07:08:13;;;;;;;1.50;1.40;;;22.20;95.10;;;;;;5055919;28;20273;-82
2022/07/13 07:10:41;;;;;;;1.77;1.50;;;22.40;94.60;;;;;;5055510;28;20212;-82
2022/07/13 07:13:11;;;;;;;1.70;1.55;;;22.60;94.80;;;;;;5055023;28;20256;-82
2022/07/13 07:15:39;;;;;;;1.10;1.00;;;22.70;94.10;;;;;;5055354;28;20259;-82
2022/07/13 07:18:07;;;;;;;2.25;1.40;;;22.80;94.10;;;;;;5055342;28;20218;-82
2022/07/13 07:20:37;;;;;;;1.30;1.20;;;23.00;93.90;;;;;;5055034;28;20212;-82
2022/07/13 07:23:05;;;;;;;1.30;1.30;;;23.20;93.50;;;;;;5055684;28;20316;-82
2022/07/13 07:25:35;;;;;;;1.98;1.80;;;23.70;93.30;;;;;;5055151;28;20254;-82
2022/07/13 07:28:04;;;;;;;1.60;1.50;;;24.20;92.30;;;;;;5055242;28;20198;-82
2022/07/13 07:30:33;;;;;;;2.50;1.38;;;24.50;91.30;;;;;;5054955;28;20263;-82
2022/07/13 07:33:01;;;;;;;1.58;1.48;;;25.00;90.60;;;;;;5055238;28;20279;-82
2022/07/13 07:35:30;;;;;;;1.55;1.45;;;25.50;90.30;;;;;;5055245;28;20202;-82
2022/07/13 07:37:58;;;;;;;2.30;1.60;;;26.20;88.50;;;;;;5054994;28;20243;-82
2022/07/13 07:40:27;;;;;;;3.83;1.42;;;26.90;86.40;;;;;;5054689;28;20222;-82
2022/07/13 07:42:57;;;;;;;1.50;1.40;;;27.20;84.70;;;;;;5054838;28;20238;-82
2022/07/13 07:45:26;;;;;;;1.40;1.30;;;27.30;83.80;;;;;;5055068;28;20212;-82
2022/07/13 07:47:54;;;;;;;1.20;1.20;;;28.00;82.00;;;;;;5054928;28;20206;-82
2022/07/13 07:50:22;;;;;;;1.60;1.50;;;28.50;80.40;;;;;;5054665;28;20205;-82
2022/07/13 07:52:51;;;;;;;1.40;1.30;;;27.80;79.80;;;;;;5054549;28;20209;-82
2022/07/13 07:55:23;;;;;;;1.30;1.20;;;27.90;79.60;;;;;;5054778;28;20209;-82
2022/07/13 07:57:52;;;;;;;1.75;1.40;;;28.40;78.40;;;;;;5053746;28;20255;-82
2022/07/13 08:00:22;;;;;;;1.80;1.70;;;28.90;77.80;;;;;;5054286;28;20201;-82
2022/07/13 08:02:51;;;;;;;1.25;1.20;;;29.00;77.50;;;;;;5054203;28;20210;-82
2022/07/13 08:05:20;;;;;;;1.15;1.15;;;29.90;76.50;;;;;;5054408;28;20205;-82
2022/07/13 08:07:49;;;;;;;1.50;1.40;;;29.90;73.20;;;;;;5054311;28;20205;-82
2022/07/13 08:10:17;;;;;;;1.95;1.45;;;30.30;72.50;;;;;;5054324;28;20201;-82
2022/07/13 08:12:56;;;;;;;3.13;1.63;;;31.00;71.60;;;;;;5054345;28;20237;-82
2022/07/13 08:15:26;;;;;;;1.48;1.38;;;30.60;70.50;;;;;;5052386;28;20232;-82
2022/07/13 08:17:55;;;;;;;1.15;1.15;;;30.80;69.60;;;;;;5052253;28;20256;-82
2022/07/13 08:20:24;;;;;;;1.40;1.30;;;30.30;69.60;;;;;;5052233;28;20210;-82
2022/07/13 08:22:52;;;;;;;1.38;1.27;;;30.30;70.90;;;;;;5051911;28;20212;-82
2022/07/13 08:25:22;;;;;;;1.40;1.30;;;31.10;68.80;;;;;;5051825;28;20210;-82
2022/07/13 08:27:50;;;;;;;1.85;1.45;;;32.00;67.30;;;;;;5051396;28;20225;-82
2022/07/13 08:30:20;;;;;;;1.85;1.58;;;31.90;66.80;;;;;;5052368;28;20209;-83
2022/07/13 08:32:50;;;;;;;1.40;1.30;;;32.50;66.70;;;;;;5052090;28;20217;-83
2022/07/13 08:38:37;;;;;;;1.30;1.30;;;32.10;64.60;;;;;;5051614;28;20237;-82
2022/07/13 08:41:06;;;;;;;1.42;1.33;;;32.50;64.20;;;;;;5051135;28;20285;-82
2022/07/13 08:43:35;;;;;;;2.42;1.40;;;33.80;62.80;;;;;;5051380;28;20233;-82
2022/07/13 08:46:08;;;;;;;1.30;1.20;;;34.20;61.30;;;;;;5051625;28;20241;-82
2022/07/13 08:48:42;;;;;;;1.40;1.30;;;34.30;60.10;;;;;;5051359;28;20220;-83
2022/07/13 08:51:10;;;;;;;1.38;1.27;;;34.20;59.30;;;;;;5051196;28;20289;-83
2022/07/13 08:53:39;;;;;;;1.75;1.25;;;33.10;60.10;;;;;;5051208;28;20225;-82
2022/07/13 08:56:08;;;;;;;1.80;1.10;;;32.90;60.70;;;;;;5051270;28;20270;-83
2022/07/13 08:58:37;;;;;;;1.10;1.00;;;32.80;61.30;;;;;;5051063;28;20239;-83
2022/07/13 09:01:08;;;;;;;1.48;1.20;;;33.10;61.30;;;;;;5050683;28;20209;-83
2022/07/13 09:03:38;;;;;;;1.30;1.20;;;32.60;59.80;;;;;;5051052;28;20229;-83
2022/07/13 09:06:07;;;;;;;0.80;0.80;;;32.80;60.00;;;;;;5051203;28;20237;-83
2022/07/13 09:08:42;;;;;;;1.38;1.30;;;32.30;60.90;;;;;;5050968;28;20209;-83
2022/07/13 09:11:11;;;;;;;1.33;1.20;;;33.10;59.70;;;;;;5051105;28;20216;-83
2022/07/13 09:13:41;;;;;;;1.13;1.10;;;33.00;59.80;;;;;;5050855;28;20264;-83
2022/07/13 09:16:20;;;;;;;1.33;1.20;;;33.10;57.70;;;;;;5050931;28;20213;-83
2022/07/13 09:18:51;;;;;;;2.35;1.38;;;33.40;57.60;;;;;;5050868;28;20205;-83
2022/07/13 09:21:30;;;;;;;1.48;1.23;;;34.50;56.00;;;;;;5050868;28;20213;-83
2022/07/13 09:24:01;;;;;;;1.38;1.27;;;35.50;54.80;;;;;;5050414;28;20217;-83
2022/07/13 09:26:40;;;;;;;1.05;1.05;;;35.90;53.50;;;;;;5050706;28;20221;-83
2022/07/13 09:29:11;;;;;;;1.00;1.00;;;35.50;53.80;;;;;;5050979;28;20205;-83
2022/07/13 09:31:52;;;;;;;1.10;1.10;;;34.80;53.70;;;;;;5050477;28;20212;-83
2022/07/13 09:34:42;;;;;;;1.08;1.08;;;34.60;54.30;;;;;;5049703;28;20233;-87
2022/07/13 09:37:12;;;;;;;1.30;1.20;;;34.60;54.00;;;;;;5050723;28;20201;-83
2022/07/13 09:39:56;;;;;;;1.42;0.90;;;34.80;54.30;;;;;;5050829;28;20259;-83
2022/07/13 09:42:29;;;;;;;1.20;1.20;;;34.00;55.00;;;;;;5051084;28;20201;-83
2022/07/13 09:47:48;;;;;;;1.38;1.00;;;34.00;55.00;;;;;;5052600;28;20279;-83
2022/07/13 09:50:18;;;;;;;1.25;1.15;;;34.00;54.30;;;;;;5052619;28;20211;-83
2022/07/13 09:52:47;;;;;;;1.48;1.30;;;34.10;54.20;;;;;;5052518;28;20213;-83
2022/07/13 09:55:20;;;;;;;1.30;1.20;;;34.40;54.80;;;;;;5052715;28;20244;-83
2022/07/13 09:57:52;;;;;;;1.10;1.02;;;34.00;53.60;;;;;;5052988;28;20220;-83
2022/07/13 10:00:32;;;;;;;0.93;0.93;;;34.00;53.90;;;;;;5052366;28;20288;-83
2022/07/13 10:03:02;;;;;;;1.10;1.10;;;33.70;54.80;;;;;;5052244;28;20475;-83
2022/07/13 10:05:32;;;;;;;1.20;1.10;;;34.20;54.20;;;;;;5052310;28;20205;-83
2022/07/13 10:08:00;;;;;;;1.23;1.13;;;33.80;53.80;;;;;;5052610;28;20225;-83
2022/07/13 10:10:29;;;;;;;1.30;1.23;;;33.30;54.80;;;;;;5052139;28;20221;-83
2022/07/13 10:13:05;;;;;;;0.80;0.80;;;33.20;54.60;;;;;;5052533;28;20225;-83
2022/07/13 10:15:33;;;;;;;0.85;0.85;;;33.60;54.40;;;;;;5052413;28;20227;-83
2022/07/13 10:18:03;;;;;;;1.45;1.35;;;33.70;54.70;;;;;;5052311;28;20346;-83
2022/07/13 10:20:36;;;;;;;3.05;1.20;;;33.60;54.70;;;;;;5053119;28;20205;-83
2022/07/13 10:23:05;;;;;;;1.25;1.23;;;33.90;55.00;;;;;;5056569;28;20221;-83
2022/07/13 10:25:45;;;;;;;0.90;0.90;;;34.00;54.50;;;;;;5056886;28;20287;-83
2022/07/13 10:28:13;;;;;;;0.93;0.93;;;34.10;54.10;;;;;;5056319;28;20244;-83
2022/07/13 10:30:42;;;;;;;1.25;1.15;;;34.20;53.50;;;;;;5056549;28;20217;-83
2022/07/13 10:33:21;;;;;;;1.10;1.10;;;34.30;53.70;;;;;;5056313;28;20227;-83
2022/07/13 10:35:52;;;;;;;0.98;0.98;;;33.90;54.80;;;;;;5056235;28;20227;-83
2022/07/13 10:38:27;;;;;;;1.70;1.60;;;33.80;54.60;;;;;;5056010;28;20201;-83
2022/07/13 10:41:29;;;;;;;1.30;1.30;;;34.20;52.80;;;;;;5056214;28;20205;-83
2022/07/13 10:44:05;;;;;;;1.27;1.20;;;34.50;53.60;;;;;;4975207;28;20287;-83
2022/07/13 10:46:56;;;;;;;1.10;1.10;;;34.50;53.80;;;;;;4975346;28;20282;-83
2022/07/13 10:49:41;;;;;;;1.20;1.20;;;35.00;53.80;;;;;;5030111;28;20208;-87
2022/07/13 10:52:50;;;;;;;1.27;1.20;;;34.70;52.70;;;;;;5055772;28;20261;-87
2022/07/13 10:55:47;;;;;;;1.60;1.45;;;34.40;53.20;;;;;;5056132;28;20209;-87
2022/07/13 10:58:44;;;;;;;1.10;1.05;;;34.50;52.80;;;;;;5055821;28;20220;-84
2022/07/13 11:01:41;;;;;;;1.58;1.20;;;34.20;51.50;;;;;;5055047;28;20201;-83
2022/07/13 11:04:11;;;;;;;1.48;1.20;;;34.20;52.20;;;;;;5055247;28;20224;-83
2022/07/13 11:06:40;;;;;;;1.20;1.10;;;34.00;53.30;;;;;;5055383;28;20240;-83
2022/07/13 11:09:20;;;;;;;1.38;1.27;;;33.80;53.90;;;;;;5055108;28;20224;-84
2022/07/13 11:11:51;;;;;;;1.48;1.38;;;34.30;54.30;;;;;;5055224;28;20208;-83
2022/07/13 11:14:59;;;;;;;2.08;1.38;;;33.70;54.80;;;;;;5055400;28;20260;-83
2022/07/13 11:17:28;;;;;;;1.40;1.30;;;33.60;54.80;;;;;;5055151;28;20240;-83
2022/07/13 11:20:09;;;;;;;5.93;1.27;;;32.70;55.10;;;;;;5055130;28;20197;-83
2022/07/13 11:25:55;;;;;;;1.00;1.00;;;33.20;55.20;;;;;;5055320;28;20209;-84
2022/07/13 11:28:41;;;;;;;0.88;0.88;;;33.50;53.40;;;;;;5054644;28;20229;-83
2022/07/13 11:31:14;;;;;;;1.55;1.20;;;33.30;53.80;;;;;;5054601;28;20201;-83
2022/07/13 11:33:49;;;;;;;1.30;1.27;;;33.30;53.40;;;;;;5054018;28;20312;-83
2022/07/13 11:36:23;;;;;;;1.75;1.63;;;33.40;54.60;;;;;;5054729;28;20208;-83
2022/07/13 11:39:00;;;;;;;1.27;1.17;;;33.90;54.00;;;;;;5055260;28;20205;-84
2022/07/13 11:41:29;;;;;;;1.60;1.50;;;34.40;53.40;;;;;;5054942;28;20220;-83
2022/07/13 11:43:59;;;;;;;1.42;1.33;;;34.50;52.20;;;;;;5054872;28;20270;-83
2022/07/13 11:46:29;;;;;;;1.30;1.15;;;34.60;51.70;;;;;;5054769;28;20197;-83
2022/07/13 11:49:05;;;;;;;0.93;0.93;;;35.00;51.50;;;;;;5054567;28;20245;-83
2022/07/13 11:51:34;;;;;;;1.25;1.20;;;34.90;50.30;;;;;;5054278;28;20205;-83
2022/07/13 11:54:09;;;;;;;1.17;0.90;;;34.30;51.40;;;;;;5054473;28;20221;-83
2022/07/13 11:56:46;;;;;;;1.42;1.33;;;33.80;51.40;;;;;;5054317;28;20208;-83
2022/07/13 11:59:16;;;;;;;0.82;0.82;;;33.90;51.90;;;;;;5054578;28;20205;-83
2022/07/13 12:01:51;;;;;;;1.30;1.20;;;33.70;52.30;;;;;;5054391;28;20210;-83
2022/07/13 12:04:23;;;;;;;1.38;0.98;;;33.50;53.10;;;;;;5054379;28;20247;-83
2022/07/13 12:06:52;;;;;;;1.48;0.88;;;33.80;52.80;;;;;;5054604;28;20293;-83
2022/07/13 12:09:21;;;;;;;1.00;0.95;;;34.20;52.90;;;;;;5054554;28;20245;-84
2022/07/13 12:11:49;;;;;;;1.05;1.05;;;34.40;52.30;;;;;;5053915;28;20212;-84
2022/07/13 12:14:19;;;;;;;1.20;1.10;;;34.70;50.40;;;;;;5054262;28;20217;-84
2022/07/13 12:16:47;;;;;;;0.90;0.85;;;34.60;47.90;;;;;;5054109;28;20217;-84
2022/07/13 12:19:20;;;;;;;0.60;0.60;;;34.70;47.90;;;;;;5054270;28;20201;-84
2022/07/13 12:21:58;;;;;;;0.98;0.88;;;34.90;46.30;;;;;;5053884;28;20213;-83
2022/07/13 12:24:26;;;;;;;0.80;0.80;;;34.30;45.90;;;;;;5054183;28;20294;-84
2022/07/13 12:26:54;;;;;;;0.95;0.95;;;34.30;46.30;;;;;;5053840;28;20209;-84
2022/07/13 12:29:31;;;;;;;0.85;0.85;;;34.50;46.50;;;;;;5053589;28;20245;-84
2022/07/13 12:32:00;;;;;;;1.08;0.98;;;34.80;46.70;;;;;;5053651;28;20208;-84
2022/07/13 12:34:29;;;;;;;0.80;0.80;;;35.10;46.30;;;;;;5053641;28;20229;-84
2022/07/13 12:36:57;;;;;;;0.80;0.80;;;35.20;46.40;;;;;;5053862;28;20228;-84
2022/07/13 12:39:35;;;;;;;0.90;0.90;;;35.00;46.10;;;;;;5053171;28;20201;-84
2022/07/13 12:42:04;;;;;;;0.63;0.63;;;35.40;45.70;;;;;;5052764;28;20212;-84
2022/07/13 12:44:34;;;;;;;0.85;0.85;;;35.40;44.30;;;;;;5052175;28;20253;-84
2022/07/13 12:47:03;;;;;;;0.95;0.90;;;35.20;45.00;;;;;;5053256;28;20224;-84
2022/07/13 12:49:36;;;;;;;1.17;0.90;;;34.70;44.70;;;;;;5053069;28;20336;-84
2022/07/13 12:52:06;;;;;;;1.98;1.20;;;34.80;43.60;;;;;;5053541;28;20206;-84
2022/07/13 12:54:46;;;;;;;5.75;1.02;;;34.60;43.70;;;;;;5053064;28;20313;-83
2022/07/13 12:57:16;;;;;;;0.70;0.70;;;34.50;42.20;;;;;;5053202;28;20205;-84
2022/07/13 13:00:07;;;;;;;0.70;0.70;;;34.70;42.70;;;;;;5053172;28;20201;-84
2022/07/13 13:02:46;;;;;;;1.20;1.10;;;34.80;41.50;;;;;;5053120;28;20204;-84
2022/07/13 13:05:15;;;;;;;1.00;0.95;;;34.70;42.00;;;;;;5053195;28;20264;-84
2022/07/13 13:07:43;;;;;;;0.95;0.95;;;34.60;42.70;;;;;;5053518;28;20229;-84
2022/07/13 13:10:12;;;;;;;1.10;1.10;;;34.30;46.00;;;;;;5052322;28;20221;-84
2022/07/13 13:12:41;;;;;;;1.00;1.00;;;33.40;46.80;;;;;;5052530;28;20209;-84
2022/07/13 13:15:11;;;;;;;0.80;0.80;;;33.60;47.60;;;;;;5052788;28;20271;-84